sensor_id;sensor_type;location;lat;lon;timestamp;pressure;altitude;pressure_sealevel;temperature;humidity
46464;BME280;32161;48.148;-1.554;2024-03-22T00:02:07;101970.69;;;11.44;100.00
46464;BME280;32161;48.148;-1.554;2024-03-22T00:04:37;101972.16;;;11.46;100.00
46464;BME280;32161;48.148;-1.554;2024-03-22T00:07:04;101974.28;;;11.51;100.00
46464;BME280;32161;48.148;-1.554;2024-03-22T00:09:34;101961.50;;;11.52;100.00
46464;BME280;32161;48.148;-1.554;2024-03-22T00:12:01;101957.44;;;11.21;100.00
46464;BME280;32161;48.148;-1.554;2024-03-22T00:14:28;101960.63;;;11.31;100.00
46464;BME280;32161;48.148;-1.554;2024-03-22T00:16:54;101963.16;;;11.39;100.00
46464;BME280;32161;48.148;-1.554;2024-03-22T00:19:22;101958.97;;;11.43;100.00
46464;BME280;32161;48.148;-1.554;2024-03-22T00:21:50;101949.97;;;11.49;100.00
46464;BME280;32161;48.148;-1.554;2024-03-22T00:24:17;101948.09;;;11.50;100.00
46464;BME280;32161;48.148;-1.554;2024-03-22T00:26:43;101940.75;;;11.51;100.00
46464;BME280;32161;48.148;-1.554;2024-03-22T00:29:10;101932.38;;;11.52;100.00
46464;BME280;32161;48.148;-1.554;2024-03-22T00:31:37;101925.47;;;11.56;100.00
46464;BME280;32161;48.148;-1.554;2024-03-22T00:34:04;101928.41;;;11.55;100.00
46464;BME280;32161;48.148;-1.554;2024-03-22T00:36:31;101932.59;;;11.51;100.00
46464;BME280;32161;48.148;-1.554;2024-03-22T00:38:59;101932.59;;;11.51;100.00
46464;BME280;32161;48.148;-1.554;2024-03-22T00:41:26;101934.06;;;11.53;100.00
46464;BME280;32161;48.148;-1.554;2024-03-22T00:43:53;101925.47;;;11.56;100.00
46464;BME280;32161;48.148;-1.554;2024-03-22T00:46:19;101930.94;;;11.49;100.00
46464;BME280;32161;48.148;-1.554;2024-03-22T00:48:46;101930.28;;;11.47;100.00
46464;BME280;32161;48.148;-1.554;2024-03-22T00:51:13;101917.91;;;11.52;100.00
46464;BME280;32161;48.148;-1.554;2024-03-22T00:53:40;101916.06;;;11.59;100.00
46464;BME280;32161;48.148;-1.554;2024-03-22T00:56:08;101914.38;;;11.64;100.00
46464;BME280;32161;48.148;-1.554;2024-03-22T00:58:35;101912.06;;;11.68;100.00
46464;BME280;32161;48.148;-1.554;2024-03-22T01:01:01;101913.13;;;11.67;100.00
46464;BME280;32161;48.148;-1.554;2024-03-22T01:03:29;101913.13;;;11.67;100.00
46464;BME280;32161;48.148;-1.554;2024-03-22T01:05:55;101907.47;;;11.62;100.00
46464;BME280;32161;48.148;-1.554;2024-03-22T01:08:23;101899.09;;;11.70;100.00
46464;BME280;32161;48.148;-1.554;2024-03-22T01:10:49;101903.28;;;11.66;100.00
46464;BME280;32161;48.148;-1.554;2024-03-22T01:13:18;101898.25;;;11.63;100.00
46464;BME280;32161;48.148;-1.554;2024-03-22T01:15:44;101892.19;;;11.61;100.00
46464;BME280;32161;48.148;-1.554;2024-03-22T01:18:13;101890.06;;;11.63;100.00
46464;BME280;32161;48.148;-1.554;2024-03-22T01:20:39;101881.06;;;11.62;100.00
46464;BME280;32161;48.148;-1.554;2024-03-22T01:23:07;101876.47;;;11.63;100.00
46464;BME280;32161;48.148;-1.554;2024-03-22T01:25:34;101876.03;;;11.59;100.00
46464;BME280;32161;48.148;-1.554;2024-03-22T01:28:01;101866.19;;;11.58;100.00
46464;BME280;32161;48.148;-1.554;2024-03-22T01:30:31;101867.03;;;11.59;100.00
46464;BME280;32161;48.148;-1.554;2024-03-22T01:33:00;101861.59;;;11.59;100.00
46464;BME280;32161;48.148;-1.554;2024-03-22T01:35:26;101857.38;;;11.56;100.00
46464;BME280;32161;48.148;-1.554;2024-03-22T01:37:53;101856.38;;;11.57;100.00
46464;BME280;32161;48.148;-1.554;2024-03-22T01:40:19;101851.75;;;11.58;100.00
46464;BME280;32161;48.148;-1.554;2024-03-22T01:42:47;101856.56;;;11.56;100.00
46464;BME280;32161;48.148;-1.554;2024-03-22T01:45:13;101848.78;;;11.53;100.00
46464;BME280;32161;48.148;-1.554;2024-03-22T01:47:43;101842.09;;;11.48;100.00
46464;BME280;32161;48.148;-1.554;2024-03-22T01:50:09;101835.41;;;11.44;100.00
46464;BME280;32161;48.148;-1.554;2024-03-22T01:52:38;101835.81;;;11.41;100.00
46464;BME280;32161;48.148;-1.554;2024-03-22T01:55:06;101822.41;;;11.40;100.00
46464;BME280;32161;48.148;-1.554;2024-03-22T01:57:34;101823.25;;;11.40;100.00
46464;BME280;32161;48.148;-1.554;2024-03-22T02:00:01;101822.00;;;11.36;100.00
46464;BME280;32161;48.148;-1.554;2024-03-22T02:02:29;101818.84;;;11.33;100.00
46464;BME280;32161;48.148;-1.554;2024-03-22T02:04:57;101826.19;;;11.32;100.00
46464;BME280;32161;48.148;-1.554;2024-03-22T02:07:24;101814.69;;;11.30;100.00
46464;BME280;32161;48.148;-1.554;2024-03-22T02:09:53;101808.78;;;11.33;100.00
46464;BME280;32161;48.148;-1.554;2024-03-22T02:12:20;101806.72;;;11.35;100.00
46464;BME280;32161;48.148;-1.554;2024-03-22T02:14:47;101808.19;;;11.38;100.00
46464;BME280;32161;48.148;-1.554;2024-03-22T02:17:14;101796.44;;;11.44;100.00
46464;BME280;32161;48.148;-1.554;2024-03-22T02:19:40;101794.38;;;11.39;100.00
46464;BME280;32161;48.148;-1.554;2024-03-22T02:22:09;101787.66;;;11.35;100.00
46464;BME280;32161;48.148;-1.554;2024-03-22T02:24:36;101792.47;;;11.33;100.00
46464;BME280;32161;48.148;-1.554;2024-03-22T02:27:04;101788.91;;;11.33;100.00
46464;BME280;32161;48.148;-1.554;2024-03-22T02:29:30;101784.53;;;11.32;100.00
46464;BME280;32161;48.148;-1.554;2024-03-22T02:31:57;101773.84;;;11.30;100.00
46464;BME280;32161;48.148;-1.554;2024-03-22T02:34:24;101782.84;;;11.31;100.00
46464;BME280;32161;48.148;-1.554;2024-03-22T02:36:51;101787.03;;;11.33;100.00
46464;BME280;32161;48.148;-1.554;2024-03-22T02:39:17;101774.69;;;11.31;100.00
46464;BME280;32161;48.148;-1.554;2024-03-22T02:41:46;101769.44;;;11.29;100.00
46464;BME280;32161;48.148;-1.554;2024-03-22T02:44:12;101766.72;;;11.29;100.00
46464;BME280;32161;48.148;-1.554;2024-03-22T02:46:39;101756.88;;;11.28;100.00
46464;BME280;32161;48.148;-1.554;2024-03-22T02:49:06;101761.50;;;11.28;100.00
46464;BME280;32161;48.148;-1.554;2024-03-22T02:51:33;101756.88;;;11.28;100.00
46464;BME280;32161;48.148;-1.554;2024-03-22T02:53:59;101757.09;;;11.27;100.00
46464;BME280;32161;48.148;-1.554;2024-03-22T02:56:27;101763.78;;;11.24;100.00
46464;BME280;32161;48.148;-1.554;2024-03-22T02:58:55;101755.00;;;11.29;100.00
46464;BME280;32161;48.148;-1.554;2024-03-22T03:01:22;101754.56;;;11.25;100.00
46464;BME280;32161;48.148;-1.554;2024-03-22T03:03:49;101751.84;;;11.25;100.00
46464;BME280;32161;48.148;-1.554;2024-03-22T03:06:16;101749.34;;;11.23;100.00
46464;BME280;32161;48.148;-1.554;2024-03-22T03:08:43;101740.53;;;11.21;100.00
46464;BME280;32161;48.148;-1.554;2024-03-22T03:11:11;101755.00;;;11.22;100.00
46464;BME280;32161;48.148;-1.554;2024-03-22T03:13:37;101753.31;;;11.21;100.00
46464;BME280;32161;48.148;-1.554;2024-03-22T03:16:06;101755.44;;;11.19;100.00
46464;BME280;32161;48.148;-1.554;2024-03-22T03:18:32;101755.44;;;11.19;100.00
46464;BME280;32161;48.148;-1.554;2024-03-22T03:21:00;101749.56;;;11.15;100.00
46464;BME280;32161;48.148;-1.554;2024-03-22T03:23:26;101751.47;;;11.15;100.00
46464;BME280;32161;48.148;-1.554;2024-03-22T03:25:53;101743.06;;;11.10;100.00
46464;BME280;32161;48.148;-1.554;2024-03-22T03:28:19;101747.66;;;11.09;100.00
46464;BME280;32161;48.148;-1.554;2024-03-22T03:30:47;101743.28;;;11.08;100.00
46464;BME280;32161;48.148;-1.554;2024-03-22T03:33:14;101738.25;;;11.05;100.00
46464;BME280;32161;48.148;-1.554;2024-03-22T03:35:45;101735.13;;;10.88;100.00
46464;BME280;32161;48.148;-1.554;2024-03-22T03:38:12;101729.03;;;10.86;100.00
46464;BME280;32161;48.148;-1.554;2024-03-22T03:40:39;101728.84;;;10.88;100.00
46464;BME280;32161;48.148;-1.554;2024-03-22T03:43:05;101727.97;;;10.87;100.00
46464;BME280;32161;48.148;-1.554;2024-03-22T03:45:35;101732.41;;;10.88;100.00
46464;BME280;32161;48.148;-1.554;2024-03-22T03:48:02;101729.25;;;10.91;100.00
46464;BME280;32161;48.148;-1.554;2024-03-22T03:50:30;101718.34;;;10.91;100.00
46464;BME280;32161;48.148;-1.554;2024-03-22T03:52:57;101724.44;;;10.93;100.00
46464;BME280;32161;48.148;-1.554;2024-03-22T03:55:24;101714.19;;;10.95;100.00
46464;BME280;32161;48.148;-1.554;2024-03-22T03:57:51;101712.09;;;10.97;100.00
46464;BME280;32161;48.148;-1.554;2024-03-22T04:00:19;101710.00;;;10.93;100.00
46464;BME280;32161;48.148;-1.554;2024-03-22T04:02:45;101702.91;;;10.92;100.00
46464;BME280;32161;48.148;-1.554;2024-03-22T04:05:13;101703.72;;;10.92;100.00
46464;BME280;32161;48.148;-1.554;2024-03-22T04:07:41;101698.28;;;10.92;100.00
46464;BME280;32161;48.148;-1.554;2024-03-22T04:10:09;101696.59;;;10.91;100.00
46464;BME280;32161;48.148;-1.554;2024-03-22T04:12:35;101687.81;;;10.89;100.00
46464;BME280;32161;48.148;-1.554;2024-03-22T04:15:03;101695.56;;;10.92;100.00
46464;BME280;32161;48.148;-1.554;2024-03-22T04:17:29;101693.47;;;10.94;100.00
46464;BME280;32161;48.148;-1.554;2024-03-22T04:19:56;101696.19;;;10.94;100.00
46464;BME280;32161;48.148;-1.554;2024-03-22T04:22:22;101706.84;;;10.83;100.00
46464;BME280;32161;48.148;-1.554;2024-03-22T04:24:51;101710.19;;;10.91;100.00
46464;BME280;32161;48.148;-1.554;2024-03-22T04:27:18;101705.19;;;11.02;100.00
46464;BME280;32161;48.148;-1.554;2024-03-22T04:29:47;101706.63;;;10.91;100.00
46464;BME280;32161;48.148;-1.554;2024-03-22T04:32:13;101706.25;;;10.81;100.00
46464;BME280;32161;48.148;-1.554;2024-03-22T04:34:41;101700.75;;;10.61;100.00
46464;BME280;32161;48.148;-1.554;2024-03-22T04:37:08;101710.38;;;10.57;100.00
46464;BME280;32161;48.148;-1.554;2024-03-22T04:39:35;101717.94;;;10.61;100.00
46464;BME280;32161;48.148;-1.554;2024-03-22T04:42:04;101718.94;;;10.47;100.00
46464;BME280;32161;48.148;-1.554;2024-03-22T04:44:32;101708.50;;;10.50;100.00
46464;BME280;32161;48.148;-1.554;2024-03-22T04:46:59;101717.91;;;10.55;100.00
46464;BME280;32161;48.148;-1.554;2024-03-22T04:49:25;101711.63;;;10.61;100.00
46464;BME280;32161;48.148;-1.554;2024-03-22T04:51:52;101713.31;;;10.62;100.00
46464;BME280;32161;48.148;-1.554;2024-03-22T04:54:19;101708.31;;;10.65;100.00
46464;BME280;32161;48.148;-1.554;2024-03-22T04:56:46;101709.56;;;10.69;100.00
46464;BME280;32161;48.148;-1.554;2024-03-22T04:59:14;101702.63;;;10.60;100.00
46464;BME280;32161;48.148;-1.554;2024-03-22T05:01:42;101711.63;;;10.61;100.00
46464;BME280;32161;48.148;-1.554;2024-03-22T05:04:10;101695.34;;;10.67;100.00
46464;BME280;32161;48.148;-1.554;2024-03-22T05:06:37;101698.69;;;10.69;100.00
46464;BME280;32161;48.148;-1.554;2024-03-22T05:09:04;101684.66;;;10.52;100.00
46464;BME280;32161;48.148;-1.554;2024-03-22T05:11:31;101683.59;;;10.60;100.00
46464;BME280;32161;48.148;-1.554;2024-03-22T05:13:57;101681.97;;;10.72;100.00
46464;BME280;32161;48.148;-1.554;2024-03-22T05:16:26;101669.22;;;10.73;100.00
46464;BME280;32161;48.148;-1.554;2024-03-22T05:18:52;101672.97;;;10.79;100.00
46464;BME280;32161;48.148;-1.554;2024-03-22T05:21:19;101672.31;;;10.83;100.00
46464;BME280;32161;48.148;-1.554;2024-03-22T05:23:46;101673.59;;;10.87;100.00
46464;BME280;32161;48.148;-1.554;2024-03-22T05:26:13;101672.56;;;10.88;100.00
46464;BME280;32161;48.148;-1.554;2024-03-22T05:28:40;101671.28;;;10.91;100.00
46464;BME280;32161;48.148;-1.554;2024-03-22T05:31:07;101666.25;;;10.94;100.00
46464;BME280;32161;48.148;-1.554;2024-03-22T05:33:35;101663.13;;;10.97;100.00
46464;BME280;32161;48.148;-1.554;2024-03-22T05:36:02;101670.22;;;10.98;100.00
46464;BME280;32161;48.148;-1.554;2024-03-22T05:38:29;101666.25;;;11.01;100.00
46464;BME280;32161;48.148;-1.554;2024-03-22T05:40:56;101668.16;;;11.00;100.00
46464;BME280;32161;48.148;-1.554;2024-03-22T05:43:22;101674.44;;;11.01;100.00
46464;BME280;32161;48.148;-1.554;2024-03-22T05:45:50;101666.03;;;11.03;100.00
46464;BME280;32161;48.148;-1.554;2024-03-22T05:48:16;101661.66;;;11.02;100.00
46464;BME280;32161;48.148;-1.554;2024-03-22T05:50:45;101660.41;;;10.97;100.00
46464;BME280;32161;48.148;-1.554;2024-03-22T05:53:11;101653.72;;;11.00;100.00
46464;BME280;32161;48.148;-1.554;2024-03-22T05:55:39;101644.50;;;10.94;100.00
46464;BME280;32161;48.148;-1.554;2024-03-22T05:58:05;101647.03;;;10.89;100.00
46464;BME280;32161;48.148;-1.554;2024-03-22T06:00:33;101645.56;;;10.87;100.00
46464;BME280;32161;48.148;-1.554;2024-03-22T06:02:59;101658.13;;;10.88;100.00
46464;BME280;32161;48.148;-1.554;2024-03-22T06:05:26;101654.97;;;10.91;100.00
46464;BME280;32161;48.148;-1.554;2024-03-22T06:07:54;101652.66;;;10.94;100.00
46464;BME280;32161;48.148;-1.554;2024-03-22T06:10:21;101659.16;;;10.93;100.00
46464;BME280;32161;48.148;-1.554;2024-03-22T06:12:48;101658.09;;;10.94;100.00
46464;BME280;32161;48.148;-1.554;2024-03-22T06:15:15;101656.84;;;10.97;100.00
46464;BME280;32161;48.148;-1.554;2024-03-22T06:17:45;101667.50;;;10.98;100.00
46464;BME280;32161;48.148;-1.554;2024-03-22T06:20:14;101674.00;;;10.78;100.00
46464;BME280;32161;48.148;-1.554;2024-03-22T06:22:40;101669.81;;;10.75;100.00
46464;BME280;32161;48.148;-1.554;2024-03-22T06:25:10;101657.06;;;10.69;100.00
46464;BME280;32161;48.148;-1.554;2024-03-22T06:27:37;101661.25;;;10.65;100.00
46464;BME280;32161;48.148;-1.554;2024-03-22T06:30:05;101653.72;;;10.67;100.00
46464;BME280;32161;48.148;-1.554;2024-03-22T06:32:32;101661.66;;;10.68;100.00
46464;BME280;32161;48.148;-1.554;2024-03-22T06:34:59;101655.59;;;10.66;100.00
46464;BME280;32161;48.148;-1.554;2024-03-22T06:37:25;101656.22;;;10.68;100.00
46464;BME280;32161;48.148;-1.554;2024-03-22T06:39:53;101654.97;;;10.71;100.00
46464;BME280;32161;48.148;-1.554;2024-03-22T06:42:20;101650.59;;;10.77;100.00
46464;BME280;32161;48.148;-1.554;2024-03-22T06:44:48;101647.84;;;10.83;100.00
46464;BME280;32161;48.148;-1.554;2024-03-22T06:47:14;101659.78;;;10.82;100.00
46464;BME280;32161;48.148;-1.554;2024-03-22T06:49:41;101657.06;;;10.82;100.00
46464;BME280;32161;48.148;-1.554;2024-03-22T06:52:07;101652.88;;;10.86;100.00
46464;BME280;32161;48.148;-1.554;2024-03-22T06:54:36;101644.31;;;10.89;100.00
46464;BME280;32161;48.148;-1.554;2024-03-22T06:57:02;101652.06;;;10.92;100.00
46464;BME280;32161;48.148;-1.554;2024-03-22T06:59:31;101648.28;;;10.93;100.00
46464;BME280;32161;48.148;-1.554;2024-03-22T07:01:57;101646.19;;;10.95;100.00
46464;BME280;32161;48.148;-1.554;2024-03-22T07:04:24;101636.75;;;10.91;100.00
46464;BME280;32161;48.148;-1.554;2024-03-22T07:06:51;101630.28;;;10.92;100.00
46464;BME280;32161;48.148;-1.554;2024-03-22T07:09:18;101626.28;;;10.95;100.00
46464;BME280;32161;48.148;-1.554;2024-03-22T07:11:44;101631.72;;;10.95;100.00
46464;BME280;32161;48.148;-1.554;2024-03-22T07:14:12;101624.84;;;10.92;100.00
46464;BME280;32161;48.148;-1.554;2024-03-22T07:16:39;101631.94;;;10.93;100.00
46464;BME280;32161;48.148;-1.554;2024-03-22T07:19:07;101637.81;;;10.97;100.00
46464;BME280;32161;48.148;-1.554;2024-03-22T07:21:33;101643.66;;;11.00;100.00
46464;BME280;32161;48.148;-1.554;2024-03-22T07:24:00;101639.47;;;11.05;100.00
46464;BME280;32161;48.148;-1.554;2024-03-22T07:26:27;101637.81;;;10.90;100.00
46464;BME280;32161;48.148;-1.554;2024-03-22T07:28:54;101655.59;;;10.93;100.00
46464;BME280;32161;48.148;-1.554;2024-03-22T07:31:20;101647.84;;;10.90;100.00
46464;BME280;32161;48.148;-1.554;2024-03-22T07:33:49;101643.06;;;10.92;100.00
46464;BME280;32161;48.148;-1.554;2024-03-22T07:36:15;101650.78;;;10.95;100.00
46464;BME280;32161;48.148;-1.554;2024-03-22T07:38:43;101649.94;;;10.94;100.00
46464;BME280;32161;48.148;-1.554;2024-03-22T07:41:09;101642.41;;;10.96;100.00
46464;BME280;32161;48.148;-1.554;2024-03-22T07:43:37;101646.38;;;11.00;100.00
46464;BME280;32161;48.148;-1.554;2024-03-22T07:46:03;101652.44;;;11.03;100.00
46464;BME280;32161;48.148;-1.554;2024-03-22T07:48:30;101654.75;;;11.06;100.00
46464;BME280;32161;48.148;-1.554;2024-03-22T07:50:58;101657.47;;;11.06;100.00
46464;BME280;32161;48.148;-1.554;2024-03-22T07:53:26;101660.59;;;11.03;100.00
46464;BME280;32161;48.148;-1.554;2024-03-22T07:55:52;101660.19;;;11.06;100.00
46464;BME280;32161;48.148;-1.554;2024-03-22T07:58:20;101662.06;;;11.05;100.00
46464;BME280;32161;48.148;-1.554;2024-03-22T08:00:46;101665.22;;;11.09;100.00
46464;BME280;32161;48.148;-1.554;2024-03-22T08:03:15;101668.16;;;11.07;100.00
46464;BME280;32161;48.148;-1.554;2024-03-22T08:05:41;101663.31;;;11.16;100.00
46464;BME280;32161;48.148;-1.554;2024-03-22T08:08:10;101668.78;;;10.89;100.00
46464;BME280;32161;48.148;-1.554;2024-03-22T08:10:36;101653.94;;;10.92;100.00
46464;BME280;32161;48.148;-1.554;2024-03-22T08:13:04;101656.03;;;10.96;100.00
46464;BME280;32161;48.148;-1.554;2024-03-22T08:15:30;101660.59;;;11.03;100.00
46464;BME280;32161;48.148;-1.554;2024-03-22T08:17:57;101660.41;;;11.11;100.00
46464;BME280;32161;48.148;-1.554;2024-03-22T08:20:24;101659.13;;;11.13;100.00
46464;BME280;32161;48.148;-1.554;2024-03-22T08:22:51;101659.97;;;11.14;100.00
46464;BME280;32161;48.148;-1.554;2024-03-22T08:25:19;101660.78;;;11.21;100.00
46464;BME280;32161;48.148;-1.554;2024-03-22T08:27:48;101664.16;;;11.23;100.00
46464;BME280;32161;48.148;-1.554;2024-03-22T08:30:14;101658.47;;;11.24;100.00
46464;BME280;32161;48.148;-1.554;2024-03-22T08:32:42;101664.16;;;11.23;100.00
46464;BME280;32161;48.148;-1.554;2024-03-22T08:35:08;101662.03;;;11.25;100.00
46464;BME280;32161;48.148;-1.554;2024-03-22T08:37:35;101664.34;;;11.28;100.00
46464;BME280;32161;48.148;-1.554;2024-03-22T08:40:02;101656.38;;;11.33;100.00
46464;BME280;32161;48.148;-1.554;2024-03-22T08:42:31;101658.00;;;11.47;100.00
46464;BME280;32161;48.148;-1.554;2024-03-22T08:44:58;101659.91;;;11.54;100.00
46464;BME280;32161;48.148;-1.554;2024-03-22T08:47:25;101661.78;;;11.53;100.00
46464;BME280;32161;48.148;-1.554;2024-03-22T08:49:52;101661.13;;;11.58;100.00
46464;BME280;32161;48.148;-1.554;2024-03-22T08:52:19;101656.53;;;11.58;100.00
46464;BME280;32161;48.148;-1.554;2024-03-22T08:54:45;101651.25;;;11.70;100.00
46464;BME280;32161;48.148;-1.554;2024-03-22T08:57:12;101650.03;;;11.53;100.00
46464;BME280;32161;48.148;-1.554;2024-03-22T08:59:40;101645.81;;;11.57;100.00
46464;BME280;32161;48.148;-1.554;2024-03-22T09:02:07;101648.13;;;11.66;100.00
46464;BME280;32161;48.148;-1.554;2024-03-22T09:04:34;101633.41;;;11.74;100.00
46464;BME280;32161;48.148;-1.554;2024-03-22T09:07:01;101634.00;;;11.83;100.00
46464;BME280;32161;48.148;-1.554;2024-03-22T09:09:27;101632.34;;;11.88;100.00
46464;BME280;32161;48.148;-1.554;2024-03-22T09:11:55;101630.03;;;11.92;100.00
46464;BME280;32161;48.148;-1.554;2024-03-22T09:14:21;101628.31;;;11.97;100.00
46464;BME280;32161;48.148;-1.554;2024-03-22T09:16:50;101617.47;;;11.84;100.00
46464;BME280;32161;48.148;-1.554;2024-03-22T09:19:16;101625.00;;;11.82;100.00
46464;BME280;32161;48.148;-1.554;2024-03-22T09:21:43;101630.44;;;11.95;100.00
46464;BME280;32161;48.148;-1.554;2024-03-22T09:24:10;101614.25;;;12.01;100.00
46464;BME280;32161;48.148;-1.554;2024-03-22T09:26:37;101609.84;;;12.00;100.00
46464;BME280;32161;48.148;-1.554;2024-03-22T09:29:03;101613.84;;;11.97;100.00
46464;BME280;32161;48.148;-1.554;2024-03-22T09:31:30;101613.81;;;12.04;100.00
46464;BME280;32161;48.148;-1.554;2024-03-22T09:33:59;101618.09;;;12.18;100.00
46464;BME280;32161;48.148;-1.554;2024-03-22T09:36:27;101625.28;;;12.12;100.00
46464;BME280;32161;48.148;-1.554;2024-03-22T09:38:53;101629.88;;;12.18;100.00
46464;BME280;32161;48.148;-1.554;2024-03-22T09:41:23;101627.09;;;12.25;100.00
46464;BME280;32161;48.148;-1.554;2024-03-22T09:43:51;101622.00;;;12.35;100.00
46464;BME280;32161;48.148;-1.554;2024-03-22T09:46:18;101616.09;;;12.38;100.00
46464;BME280;32161;48.148;-1.554;2024-03-22T09:48:47;101620.66;;;12.44;100.00
46464;BME280;32161;48.148;-1.554;2024-03-22T09:51:16;101614.53;;;12.49;100.00
46464;BME280;32161;48.148;-1.554;2024-03-22T09:53:43;101608.53;;;12.40;100.00
46464;BME280;32161;48.148;-1.554;2024-03-22T09:56:12;101602.47;;;12.38;100.00
46464;BME280;32161;48.148;-1.554;2024-03-22T09:58:40;101596.78;;;12.40;100.00
46464;BME280;32161;48.148;-1.554;2024-03-22T10:01:08;101596.59;;;12.41;100.00
46464;BME280;32161;48.148;-1.554;2024-03-22T10:03:34;101597.06;;;12.32;100.00
46464;BME280;32161;48.148;-1.554;2024-03-22T10:06:02;101594.88;;;12.40;100.00
46464;BME280;32161;48.148;-1.554;2024-03-22T10:08:31;101604.00;;;12.53;100.00
46464;BME280;32161;48.148;-1.554;2024-03-22T10:11:01;101593.78;;;12.73;100.00
46464;BME280;32161;48.148;-1.554;2024-03-22T10:13:29;101601.97;;;12.73;100.00
46464;BME280;32161;48.148;-1.554;2024-03-22T10:15:56;101596.28;;;12.75;100.00
46464;BME280;32161;48.148;-1.554;2024-03-22T10:18:23;101586.38;;;12.80;100.00
46464;BME280;32161;48.148;-1.554;2024-03-22T10:20:59;101580.25;;;12.85;100.00
46464;BME280;32161;48.148;-1.554;2024-03-22T10:23:26;101578.50;;;12.90;100.00
46464;BME280;32161;48.148;-1.554;2024-03-22T10:25:56;101568.41;;;12.91;100.00
46464;BME280;32161;48.148;-1.554;2024-03-22T10:28:22;101570.19;;;13.04;100.00
46464;BME280;32161;48.148;-1.554;2024-03-22T10:30:50;101563.81;;;13.10;100.00
46464;BME280;32161;48.148;-1.554;2024-03-22T10:33:18;101554.59;;;13.11;100.00
46464;BME280;32161;48.148;-1.554;2024-03-22T10:35:46;101556.69;;;13.09;100.00
46464;BME280;32161;48.148;-1.554;2024-03-22T10:38:13;101554.59;;;13.11;100.00
46464;BME280;32161;48.148;-1.554;2024-03-22T10:40:41;101555.69;;;13.22;100.00
46464;BME280;32161;48.148;-1.554;2024-03-22T10:43:11;101550.19;;;13.28;100.00
46464;BME280;32161;48.148;-1.554;2024-03-22T10:45:39;101548.16;;;13.42;100.00
46464;BME280;32161;48.148;-1.554;2024-03-22T10:48:09;101545.94;;;13.51;100.00
46464;BME280;32161;48.148;-1.554;2024-03-22T10:50:38;101531.94;;;13.59;100.00
46464;BME280;32161;48.148;-1.554;2024-03-22T10:53:06;101525.38;;;13.78;100.00
46464;BME280;32161;48.148;-1.554;2024-03-22T10:55:35;101517.22;;;13.90;100.00
46464;BME280;32161;48.148;-1.554;2024-03-22T10:58:02;101515.47;;;14.07;100.00
46464;BME280;32161;48.148;-1.554;2024-03-22T11:00:32;101495.91;;;14.22;100.00
46464;BME280;32161;48.148;-1.554;2024-03-22T11:02:59;101488.63;;;14.39;100.00
46464;BME280;32161;48.148;-1.554;2024-03-22T11:05:26;101501.78;;;14.61;100.00
46464;BME280;32161;48.148;-1.554;2024-03-22T11:07:59;101500.31;;;14.70;100.00
46464;BME280;32161;48.148;-1.554;2024-03-22T11:10:28;101496.72;;;14.93;100.00
46464;BME280;32161;48.148;-1.554;2024-03-22T11:12:56;101492.41;;;15.09;100.00
46464;BME280;32161;48.148;-1.554;2024-03-22T11:15:28;101483.03;;;15.33;100.00
46464;BME280;32161;48.148;-1.554;2024-03-22T11:17:56;101475.50;;;15.41;100.00
46464;BME280;32161;48.148;-1.554;2024-03-22T11:20:23;101474.66;;;15.40;100.00
46464;BME280;32161;48.148;-1.554;2024-03-22T11:22:51;101473.84;;;15.39;100.00
46464;BME280;32161;48.148;-1.554;2024-03-22T11:25:18;101480.28;;;15.45;100.00
46464;BME280;32161;48.148;-1.554;2024-03-22T11:27:45;101475.38;;;15.47;100.00
46464;BME280;32161;48.148;-1.554;2024-03-22T11:30:12;101478.69;;;15.49;100.00
46464;BME280;32161;48.148;-1.554;2024-03-22T11:32:39;101474.88;;;15.50;100.00
46464;BME280;32161;48.148;-1.554;2024-03-22T11:35:12;101468.09;;;15.53;100.00
46464;BME280;32161;48.148;-1.554;2024-03-22T11:37:39;101460.53;;;15.60;100.00
46464;BME280;32161;48.148;-1.554;2024-03-22T11:40:08;101464.56;;;15.69;100.00
46464;BME280;32161;48.148;-1.554;2024-03-22T11:42:37;101464.09;;;15.72;100.00
46464;BME280;32161;48.148;-1.554;2024-03-22T11:45:06;101456.09;;;15.71;100.00
46464;BME280;32161;48.148;-1.554;2024-03-22T11:47:34;101453.97;;;15.61;100.00
46464;BME280;32161;48.148;-1.554;2024-03-22T11:50:02;101451.59;;;15.65;100.00
46464;BME280;32161;48.148;-1.554;2024-03-22T11:52:30;101447.63;;;15.72;100.00
46464;BME280;32161;48.148;-1.554;2024-03-22T11:54:57;101448.53;;;15.78;100.00
46464;BME280;32161;48.148;-1.554;2024-03-22T11:57:24;101445.31;;;15.81;100.00
46464;BME280;32161;48.148;-1.554;2024-03-22T11:59:51;101444.16;;;15.77;100.00
46464;BME280;32161;48.148;-1.554;2024-03-22T12:02:17;101441.91;;;15.74;100.00
46464;BME280;32161;48.148;-1.554;2024-03-22T12:04:46;101433.75;;;15.79;100.00
46464;BME280;32161;48.148;-1.554;2024-03-22T12:07:13;101427.28;;;15.85;100.00
46464;BME280;32161;48.148;-1.554;2024-03-22T12:09:42;101426.53;;;15.90;100.00
46464;BME280;32161;48.148;-1.554;2024-03-22T12:12:10;101423.38;;;15.98;100.00
46464;BME280;32161;48.148;-1.554;2024-03-22T12:14:38;101423.38;;;15.98;100.00
46464;BME280;32161;48.148;-1.554;2024-03-22T12:17:04;101416.22;;;15.97;100.00
46464;BME280;32161;48.148;-1.554;2024-03-22T12:19:32;101409.09;;;15.96;100.00
46464;BME280;32161;48.148;-1.554;2024-03-22T12:21:58;101416.91;;;16.04;100.00
46464;BME280;32161;48.148;-1.554;2024-03-22T12:24:26;101410.91;;;16.07;100.00
46464;BME280;32161;48.148;-1.554;2024-03-22T12:26:54;101410.66;;;16.08;100.00
46464;BME280;32161;48.148;-1.554;2024-03-22T12:29:21;101412.41;;;16.15;100.00
46464;BME280;32161;48.148;-1.554;2024-03-22T12:31:48;101403.41;;;16.19;100.00